createdAt,value
2018-05-13T00:00:44.482Z,99.90
2018-05-13T00:03:15.033Z,99.90
2018-05-13T00:05:44.288Z,99.90
2018-05-13T00:08:13.548Z,99.90
2018-05-13T00:10:42.866Z,99.90
2018-05-13T00:13:12.172Z,99.90
2018-05-13T00:15:41.719Z,99.90
2018-05-13T00:18:11.008Z,99.90
2018-05-13T00:20:40.267Z,99.90
2018-05-13T00:23:09.828Z,99.90
2018-05-13T00:25:39.888Z,99.90
2018-05-13T00:28:09.637Z,99.90
2018-05-13T00:30:39.360Z,99.90
2018-05-13T00:33:09.263Z,99.90
2018-05-13T00:35:38.562Z,99.90
2018-05-13T00:38:07.957Z,99.90
2018-05-13T00:40:37.251Z,99.90
2018-05-13T00:43:06.538Z,99.90
2018-05-13T00:45:35.868Z,99.90
2018-05-13T00:48:05.907Z,99.90
2018-05-13T00:50:35.212Z,99.90
2018-05-13T00:54:03.015Z,99.90
2018-05-13T00:56:32.336Z,99.90
2018-05-13T00:59:01.961Z,99.90
2018-05-13T01:01:31.285Z,99.90
2018-05-13T01:04:00.553Z,99.90
2018-05-13T01:06:29.825Z,99.90
2018-05-13T01:08:59.851Z,99.90
2018-05-13T01:11:29.124Z,99.90
2018-05-13T01:13:58.360Z,99.90
2018-05-13T01:16:27.626Z,99.90
2018-05-13T01:18:57.708Z,99.90
2018-05-13T01:21:27.491Z,99.90
2018-05-13T01:23:56.803Z,99.90
2018-05-13T01:26:26.091Z,99.90
2018-05-13T01:28:55.403Z,99.90
2018-05-13T01:31:24.657Z,99.90
2018-05-13T01:33:55.599Z,99.90
2018-05-13T01:36:26.998Z,99.90
2018-05-13T01:40:29.276Z,99.90
2018-05-13T01:42:59.703Z,99.90
2018-05-13T01:45:28.978Z,99.90
2018-05-13T01:47:58.249Z,99.90
2018-05-13T01:50:28.341Z,99.90
2018-05-13T01:52:57.660Z,99.90
2018-05-13T01:55:27.055Z,99.90
2018-05-13T01:57:58.466Z,99.90
2018-05-13T02:00:27.888Z,99.90
2018-05-13T02:02:57.659Z,99.90
2018-05-13T02:05:52.448Z,99.90
2018-05-13T02:08:22.064Z,99.90
2018-05-13T02:10:51.660Z,99.90
2018-05-13T02:13:20.936Z,99.90
2018-05-13T02:15:50.191Z,99.90
2018-05-13T02:18:19.485Z,99.90
2018-05-13T02:20:48.761Z,99.90
2018-05-13T02:23:18.044Z,99.90
2018-05-13T02:25:48.836Z,99.90
2018-05-13T02:28:18.487Z,99.90
2018-05-13T02:30:47.744Z,99.90
2018-05-13T02:33:17.091Z,99.90
2018-05-13T02:35:46.455Z,99.90
2018-05-13T02:38:15.719Z,99.90
2018-05-13T02:40:45.016Z,99.90
2018-05-13T02:43:14.321Z,99.90
2018-05-13T02:45:44.371Z,99.90
2018-05-13T02:48:13.688Z,99.90
2018-05-13T02:50:43.000Z,99.90
2018-05-13T02:53:12.282Z,99.90
2018-05-13T02:55:41.590Z,99.90
2018-05-13T02:58:11.390Z,99.90
2018-05-13T03:00:40.669Z,99.90
2018-05-13T03:03:10.722Z,99.90
2018-05-13T03:05:40.071Z,99.90
2018-05-13T03:08:09.384Z,99.90
2018-05-13T03:10:38.668Z,99.90
2018-05-13T03:13:07.915Z,99.90
2018-05-13T03:15:37.181Z,99.90
2018-05-13T03:18:07.307Z,99.90
2018-05-13T03:20:36.800Z,99.90
2018-05-13T03:23:06.814Z,99.90
2018-05-13T03:25:36.092Z,99.90
2018-05-13T03:28:06.913Z,99.90
2018-05-13T03:30:36.180Z,99.90
2018-05-13T03:33:05.868Z,99.90
2018-05-13T03:35:36.307Z,99.90
2018-05-13T03:38:05.637Z,99.90
2018-05-13T03:40:34.932Z,99.90
2018-05-13T03:43:04.999Z,99.90
2018-05-13T03:45:35.287Z,99.90
2018-05-13T03:48:04.903Z,99.90
2018-05-13T03:50:34.251Z,99.90
2018-05-13T03:53:04.311Z,99.90
2018-05-13T03:55:34.342Z,99.90
2018-05-13T03:58:03.640Z,99.90
2018-05-13T04:00:33.048Z,99.90
2018-05-13T04:03:02.351Z,99.90
2018-05-13T04:05:31.665Z,99.90
2018-05-13T04:08:04.025Z,99.90
2018-05-13T04:11:45.166Z,99.90
2018-05-13T04:15:27.401Z,99.90
2018-05-13T04:17:56.779Z,99.90
2018-05-13T04:20:26.121Z,99.90
2018-05-13T04:22:55.398Z,99.90
2018-05-13T04:25:25.439Z,99.90
2018-05-13T04:27:54.710Z,99.90
2018-05-13T04:30:23.974Z,99.90
2018-05-13T04:32:54.024Z,99.90
2018-05-13T04:35:23.395Z,99.90
2018-05-13T04:37:53.781Z,99.90
2018-05-13T04:40:23.109Z,99.90
2018-05-13T04:42:52.422Z,99.90
2018-05-13T04:45:26.814Z,99.90
2018-05-13T04:47:58.315Z,99.90
2018-05-13T04:50:28.184Z,99.90
2018-05-13T04:52:57.683Z,99.90
2018-05-13T04:55:27.003Z,99.90
2018-05-13T04:57:56.267Z,99.90
2018-05-13T05:00:25.583Z,99.90
2018-05-13T05:03:00.248Z,99.90
2018-05-13T05:05:30.492Z,99.90
2018-05-13T05:07:59.742Z,99.90
2018-05-13T05:10:29.035Z,99.90
2018-05-13T05:12:58.951Z,99.90
2018-05-13T05:15:29.012Z,99.90
2018-05-13T05:17:58.463Z,99.90
2018-05-13T05:20:27.760Z,99.90
2018-05-13T05:22:57.109Z,99.90
2018-05-13T05:25:26.692Z,99.90
2018-05-13T05:27:56.113Z,99.90
2018-05-13T05:31:28.977Z,99.90
2018-05-13T05:33:58.311Z,99.90
2018-05-13T05:36:28.860Z,99.90
2018-05-13T05:38:58.165Z,99.90
2018-05-13T05:41:27.540Z,99.90
2018-05-13T05:43:56.919Z,99.90
2018-05-13T05:46:26.260Z,99.90
2018-05-13T05:48:56.297Z,99.90
2018-05-13T05:51:25.943Z,99.90
2018-05-13T05:53:55.315Z,99.90
2018-05-13T05:56:25.451Z,99.90
2018-05-13T05:58:55.207Z,99.90
2018-05-13T06:01:24.478Z,99.90
2018-05-13T06:03:53.747Z,99.90
2018-05-13T06:06:23.331Z,99.90
2018-05-13T06:08:52.600Z,99.90
2018-05-13T06:11:21.872Z,99.90
2018-05-13T06:13:51.425Z,99.90
2018-05-13T06:16:20.663Z,99.90
2018-05-13T06:18:49.929Z,99.90
2018-05-13T06:21:20.473Z,99.90
2018-05-13T06:23:50.521Z,99.90
2018-05-13T06:26:19.879Z,99.90
2018-05-13T06:28:49.475Z,99.90
2018-05-13T06:31:18.719Z,99.90
2018-05-13T06:33:48.028Z,99.90
2018-05-13T06:36:17.573Z,99.90
2018-05-13T06:38:46.972Z,99.90
2018-05-13T06:41:16.268Z,99.90
2018-05-13T06:43:47.796Z,99.90
2018-05-13T06:46:17.060Z,99.90
2018-05-13T06:48:57.132Z,99.90
2018-05-13T06:52:00.647Z,99.90
2018-05-13T06:54:30.187Z,99.90
2018-05-13T06:56:59.708Z,99.90
2018-05-13T06:59:29.549Z,99.90
2018-05-13T07:01:59.130Z,98.10
2018-05-13T07:04:30.363Z,94.50
2018-05-13T07:06:59.650Z,94.50
2018-05-13T07:09:28.959Z,93.80
2018-05-13T07:11:58.665Z,95.60
2018-05-13T07:14:37.529Z,93.20
2018-05-13T07:17:09.605Z,91.20
2018-05-13T07:19:39.635Z,91.10
2018-05-13T07:22:09.064Z,89.80
2018-05-13T07:24:38.342Z,93.60
2018-05-13T07:27:07.625Z,87.60
2018-05-13T07:29:37.247Z,86.60
2018-05-13T07:32:06.520Z,81.70
2018-05-13T07:34:37.325Z,79.90
2018-05-13T07:37:06.988Z,80.00
2018-05-13T07:39:36.341Z,79.60
2018-05-13T07:42:06.592Z,74.90
2018-05-13T07:44:36.326Z,75.90
2018-05-13T07:47:06.336Z,72.70
2018-05-13T07:49:35.605Z,72.60
2018-05-13T07:52:05.262Z,72.20
2018-05-13T07:54:34.587Z,71.10
2018-05-13T07:57:05.629Z,66.70
2018-05-13T07:59:38.455Z,68.10
2018-05-13T08:02:08.810Z,68.00
2018-05-13T08:04:39.863Z,60.10
2018-05-13T08:07:08.695Z,60.20
2018-05-13T08:09:37.193Z,58.60
2018-05-13T08:12:05.611Z,66.20
2018-05-13T08:14:36.105Z,68.20
2018-05-13T08:17:04.486Z,67.90
2018-05-13T08:19:32.882Z,67.40
2018-05-13T08:22:04.071Z,86.20
2018-05-13T08:24:32.475Z,86.00
2018-05-13T08:27:00.857Z,87.60
2018-05-13T08:29:29.658Z,83.40
2018-05-13T08:31:58.109Z,78.20
2018-05-13T08:34:28.115Z,78.70
2018-05-13T08:36:56.962Z,71.70
2018-05-13T08:39:25.366Z,76.70
2018-05-13T08:41:55.310Z,71.60
2018-05-13T08:44:25.952Z,71.60
2018-05-13T08:46:54.362Z,79.90
2018-05-13T08:49:22.776Z,79.70
2018-05-13T08:51:52.341Z,81.00
2018-05-13T08:54:20.755Z,81.20
2018-05-13T08:56:54.465Z,90.90
2018-05-13T08:59:23.328Z,90.80
2018-05-13T09:01:52.288Z,86.80
2018-05-13T09:04:22.892Z,87.20
2018-05-13T09:06:52.447Z,92.60
2018-05-13T09:09:20.916Z,92.60
2018-05-13T09:11:50.697Z,94.50
2018-05-13T09:14:20.018Z,94.60
2018-05-13T09:16:49.816Z,93.20
2018-05-13T09:19:18.213Z,93.90
2018-05-13T09:21:47.875Z,92.80
2018-05-13T09:24:20.858Z,93.70
2018-05-13T09:26:56.648Z,93.70
2018-05-13T09:32:16.403Z,94.20
2018-05-13T09:34:49.962Z,94.90
2018-05-13T09:37:18.622Z,95.70
2018-05-13T09:39:47.810Z,94.70
2018-05-13T09:42:17.397Z,98.90
2018-05-13T09:44:45.840Z,98.60
2018-05-13T09:47:15.260Z,96.60
2018-05-13T09:49:44.662Z,95.90
2018-05-13T09:52:15.959Z,95.30
2018-05-13T09:54:51.319Z,98.50
2018-05-13T09:57:25.703Z,99.40
2018-05-13T10:05:53.963Z,99.90
2018-05-13T10:08:23.546Z,99.90
2018-05-13T10:11:03.191Z,99.30
2018-05-13T10:13:33.114Z,99.10
2018-05-13T10:16:02.582Z,99.90
2018-05-13T10:18:32.274Z,99.90
2018-05-13T10:21:01.893Z,99.90
2018-05-13T10:23:32.550Z,99.90
2018-05-13T10:26:02.487Z,99.90
2018-05-13T10:28:32.192Z,99.90
2018-05-13T10:31:01.307Z,99.90
2018-05-13T10:33:30.581Z,99.90
2018-05-13T10:36:00.316Z,99.90
2018-05-13T10:38:28.997Z,99.90
2018-05-13T10:40:58.669Z,97.20
2018-05-13T10:43:28.178Z,97.20
2018-05-13T10:46:00.198Z,96.60
2018-05-13T10:48:37.938Z,98.60
2018-05-13T10:51:07.941Z,98.70
2018-05-13T10:53:44.427Z,96.80
2018-05-13T10:56:21.141Z,96.80
2018-05-13T10:58:50.400Z,99.90
2018-05-13T11:01:23.945Z,97.80
2018-05-13T11:04:04.244Z,97.40
2018-05-13T11:06:33.795Z,98.20
2018-05-13T11:09:02.490Z,97.30
2018-05-13T11:11:31.682Z,98.80
2018-05-13T11:14:23.167Z,99.90
2018-05-13T11:17:00.600Z,98.30
2018-05-13T11:19:42.286Z,97.70
2018-05-13T11:22:23.889Z,97.70
2018-05-13T11:31:52.293Z,97.60
2018-05-13T11:34:23.695Z,96.40
2018-05-13T11:36:55.765Z,96.40
2018-05-13T11:42:32.120Z,97.60
2018-05-13T11:45:03.374Z,94.70
2018-05-13T11:47:33.651Z,95.40
2018-05-13T11:50:07.121Z,95.40
2018-05-13T11:53:01.809Z,95.40
2018-05-13T11:55:31.897Z,96.60
2018-05-13T11:58:14.027Z,95.20
2018-05-13T12:00:42.959Z,96.00
2018-05-13T12:03:14.418Z,94.30
2018-05-13T12:09:15.340Z,95.80
2018-05-13T12:12:13.586Z,96.10
2018-05-13T12:14:49.318Z,94.30
2018-05-13T12:17:32.807Z,94.70
2018-05-13T12:21:30.943Z,94.60
2018-05-13T12:24:04.805Z,94.80
2018-05-13T12:26:46.479Z,94.80
2018-05-13T12:29:16.336Z,94.30
2018-05-13T12:31:54.144Z,93.00
2018-05-13T12:34:25.429Z,93.00
2018-05-13T12:37:36.977Z,92.80
2018-05-13T12:40:52.145Z,93.10
2018-05-13T12:43:28.561Z,92.90
2018-05-13T12:48:45.968Z,92.90
2018-05-13T12:51:15.643Z,93.00
2018-05-13T12:57:55.466Z,92.20
2018-05-13T13:00:41.809Z,90.90
2018-05-13T13:03:18.307Z,90.60
2018-05-13T13:05:48.698Z,92.90
2018-05-13T13:11:26.656Z,91.60
2018-05-13T13:13:55.103Z,91.40
2018-05-13T13:16:25.316Z,91.90
2018-05-13T13:18:55.083Z,91.00
2018-05-13T13:21:29.470Z,91.00
2018-05-13T13:23:59.025Z,91.50
2018-05-13T13:26:34.267Z,94.00
2018-05-13T13:29:02.695Z,92.30
2018-05-13T13:31:33.183Z,90.30
2018-05-13T13:34:04.092Z,91.20
2018-05-13T13:36:32.871Z,91.20
2018-05-13T13:39:03.843Z,90.30
2018-05-13T13:41:38.471Z,91.90
2018-05-13T13:44:13.140Z,90.20
2018-05-13T13:46:42.329Z,92.30
2018-05-13T13:49:12.614Z,92.30
2018-05-13T13:51:46.579Z,88.80
2018-05-13T13:54:17.404Z,88.70
2018-05-13T13:56:50.991Z,88.00
2018-05-13T13:59:20.913Z,86.10
2018-05-13T14:01:53.727Z,86.20
2018-05-13T14:04:25.123Z,88.10
2018-05-13T14:07:00.582Z,86.40
2018-05-13T14:09:34.795Z,87.40
2018-05-13T14:12:06.610Z,85.80
2018-05-13T14:14:35.900Z,86.40
2018-05-13T14:17:05.352Z,86.70
2018-05-13T14:19:33.788Z,86.00
2018-05-13T14:22:03.343Z,87.50
2018-05-13T14:24:32.435Z,85.20
2018-05-13T14:27:00.949Z,85.90
2018-05-13T14:29:33.722Z,86.60
2018-05-13T14:32:06.731Z,86.80
2018-05-13T14:34:41.628Z,86.60
2018-05-13T14:37:11.001Z,87.20
2018-05-13T14:39:40.339Z,90.30
2018-05-13T14:42:10.340Z,90.70
2018-05-13T14:44:39.322Z,90.80
2018-05-13T14:47:07.740Z,91.50
2018-05-13T14:49:39.822Z,92.10
2018-05-13T14:52:08.656Z,90.80
2018-05-13T14:54:38.998Z,91.20
2018-05-13T14:57:09.627Z,90.80
2018-05-13T14:59:41.804Z,90.00
2018-05-13T15:02:12.907Z,90.20
2018-05-13T15:04:41.743Z,90.20
2018-05-13T15:07:12.673Z,90.90
2018-05-13T15:09:45.494Z,91.20
2018-05-13T15:12:15.904Z,90.40
2018-05-13T15:14:45.772Z,90.00
2018-05-13T15:17:22.991Z,91.50
2018-05-13T15:20:05.399Z,91.00
2018-05-13T15:22:36.311Z,91.00
2018-05-13T15:25:06.154Z,91.60
2018-05-13T15:27:37.284Z,94.30
2018-05-13T15:30:05.667Z,94.30
2018-05-13T15:32:34.675Z,92.90
2018-05-13T15:35:03.170Z,94.10
2018-05-13T15:37:33.437Z,93.80
2018-05-13T15:40:03.189Z,93.80
2018-05-13T15:42:32.806Z,93.40
2018-05-13T15:45:01.105Z,93.20
2018-05-13T15:47:29.871Z,94.20
2018-05-13T15:49:58.303Z,94.80
2018-05-13T15:52:26.883Z,92.40
2018-05-13T15:54:55.767Z,92.90
2018-05-13T15:57:24.353Z,92.50
2018-05-13T15:59:54.437Z,94.30
2018-05-13T16:02:36.067Z,96.40
2018-05-13T16:05:08.848Z,96.30
2018-05-13T16:07:37.473Z,93.40
2018-05-13T16:10:08.148Z,94.20
2018-05-13T16:12:36.693Z,93.40
2018-05-13T16:15:07.738Z,94.20
2018-05-13T16:17:36.610Z,94.30
2018-05-13T16:20:07.234Z,95.00
2018-05-13T16:22:35.954Z,94.90
2018-05-13T16:25:05.109Z,95.80
2018-05-13T16:27:33.529Z,95.70
2018-05-13T16:30:02.477Z,96.00
2018-05-13T16:32:30.948Z,99.30
2018-05-13T16:34:59.447Z,99.90
2018-05-13T16:37:30.950Z,99.90
2018-05-13T16:40:00.455Z,99.90
2018-05-13T16:42:45.165Z,99.90
2018-05-13T16:45:16.344Z,99.90
2018-05-13T16:47:46.255Z,99.90
2018-05-13T16:54:05.612Z,99.90
2018-05-13T16:59:55.995Z,99.90
2018-05-13T17:02:32.512Z,99.90
2018-05-13T17:08:09.061Z,99.90
2018-05-13T17:10:38.354Z,99.90
2018-05-13T17:13:06.809Z,99.90
2018-05-13T17:15:36.053Z,99.90
2018-05-13T17:18:04.834Z,99.90
2018-05-13T17:20:33.286Z,99.90
2018-05-13T17:23:02.686Z,99.90
2018-05-13T17:25:31.102Z,99.90
2018-05-13T17:28:00.813Z,99.90
2018-05-13T17:30:30.418Z,99.90
2018-05-13T17:32:59.614Z,99.90
2018-05-13T17:35:28.020Z,99.90
2018-05-13T17:37:57.262Z,99.90
2018-05-13T17:40:25.644Z,99.90
2018-05-13T17:42:55.656Z,99.90
2018-05-13T17:45:28.657Z,99.90
2018-05-13T17:47:57.642Z,99.90
2018-05-13T17:50:26.039Z,99.90
2018-05-13T17:52:55.524Z,99.90
2018-05-13T17:55:24.017Z,99.90
2018-05-13T17:57:53.979Z,99.90
2018-05-13T18:00:22.726Z,99.90
2018-05-13T18:02:51.935Z,99.90
2018-05-13T18:05:39.292Z,99.90
2018-05-13T18:08:08.143Z,99.90
2018-05-13T18:10:36.710Z,99.90
2018-05-13T18:13:08.276Z,99.90
2018-05-13T18:15:38.474Z,99.90
2018-05-13T18:18:07.178Z,99.90
2018-05-13T18:20:35.608Z,99.90
2018-05-13T18:23:04.336Z,99.90
2018-05-13T18:25:32.866Z,99.90
2018-05-13T18:28:01.997Z,99.90
2018-05-13T18:30:30.794Z,99.90
2018-05-13T18:32:59.212Z,99.90
2018-05-13T18:35:28.394Z,99.90
2018-05-13T18:37:57.286Z,99.90
2018-05-13T18:40:26.071Z,99.90
2018-05-13T18:42:56.048Z,99.90
2018-05-13T18:45:24.776Z,99.90
2018-05-13T18:47:54.619Z,99.90
2018-05-13T18:50:23.088Z,99.90
2018-05-13T18:53:03.823Z,99.90
2018-05-13T18:55:33.585Z,99.90
2018-05-13T18:58:05.096Z,99.90
2018-05-13T19:00:33.975Z,99.90
2018-05-13T19:03:02.389Z,99.90
2018-05-13T19:05:30.948Z,99.90
2018-05-13T19:07:59.801Z,99.90
2018-05-13T19:10:28.251Z,99.90
2018-05-13T19:12:57.836Z,99.90
2018-05-13T19:15:46.572Z,99.90
2018-05-13T19:18:14.978Z,99.90
2018-05-13T19:20:45.516Z,99.90
2018-05-13T19:23:14.443Z,99.90
2018-05-13T19:25:43.914Z,99.90
2018-05-13T19:28:12.322Z,99.90
2018-05-13T19:30:41.084Z,99.90
2018-05-13T19:33:15.629Z,99.90
2018-05-13T19:35:47.209Z,99.90
2018-05-13T19:38:17.015Z,99.90
2018-05-13T19:40:47.135Z,99.90
2018-05-13T19:43:16.739Z,99.90
2018-05-13T19:45:45.770Z,99.90
2018-05-13T19:48:16.872Z,99.90
2018-05-13T19:53:37.880Z,99.90
2018-05-13T19:56:08.711Z,99.90
2018-05-13T19:58:41.015Z,99.90
2018-05-13T20:01:12.527Z,99.90
2018-05-13T20:03:42.598Z,99.90
2018-05-13T20:06:12.255Z,99.90
2018-05-13T20:08:42.696Z,99.90
2018-05-13T20:11:12.238Z,99.90
2018-05-13T20:13:40.627Z,99.90
2018-05-13T20:16:09.451Z,99.90
2018-05-13T20:18:38.135Z,99.90
2018-05-13T20:21:06.619Z,99.90
2018-05-13T20:23:35.824Z,99.90
2018-05-13T20:26:04.279Z,99.90
2018-05-13T20:28:32.864Z,99.90
2018-05-13T20:31:01.822Z,99.90
2018-05-13T20:33:30.258Z,99.90
2018-05-13T20:35:59.740Z,99.90
2018-05-13T20:38:29.442Z,99.90
2018-05-13T20:40:57.843Z,99.90
2018-05-13T20:43:26.235Z,99.90
2018-05-13T20:45:54.927Z,99.90
2018-05-13T20:48:23.633Z,99.90
2018-05-13T20:50:52.771Z,99.90
2018-05-13T20:53:22.101Z,99.90
2018-05-13T20:55:50.583Z,99.90
2018-05-13T20:58:19.684Z,99.90
2018-05-13T21:00:49.202Z,99.90
2018-05-13T21:03:18.288Z,99.90
2018-05-13T21:05:47.599Z,99.90
2018-05-13T21:08:16.386Z,99.90
2018-05-13T21:10:46.206Z,99.90
2018-05-13T21:13:14.790Z,99.90
2018-05-13T21:15:45.019Z,99.90
2018-05-13T21:18:13.795Z,99.90
2018-05-13T21:20:44.578Z,99.90
2018-05-13T21:23:13.550Z,99.90
2018-05-13T21:25:42.495Z,99.90
2018-05-13T21:28:10.946Z,99.90
2018-05-13T21:30:39.322Z,99.90
2018-05-13T21:33:07.727Z,99.90
2018-05-13T21:35:36.428Z,99.90
2018-05-13T21:38:04.843Z,99.90
2018-05-13T21:40:34.074Z,99.90
2018-05-13T21:43:02.868Z,99.90
2018-05-13T21:45:31.341Z,99.90
2018-05-13T21:47:59.727Z,99.90
2018-05-13T21:50:28.110Z,99.90
2018-05-13T21:52:56.767Z,99.90
2018-05-13T21:55:25.626Z,99.90
2018-05-13T21:57:54.015Z,99.90
2018-05-13T22:00:24.748Z,99.90
2018-05-13T22:02:53.531Z,99.90
2018-05-13T22:05:21.959Z,99.90
2018-05-13T22:07:52.356Z,99.90
2018-05-13T22:10:21.626Z,99.90
2018-05-13T22:12:50.519Z,99.90
2018-05-13T22:15:20.221Z,99.90
2018-05-13T22:17:49.322Z,99.90
2018-05-13T22:20:17.924Z,99.90
2018-05-13T22:22:46.851Z,99.90
2018-05-13T22:25:18.963Z,99.90
2018-05-13T22:27:48.028Z,99.90
2018-05-13T22:30:16.515Z,99.90
2018-05-13T22:32:45.571Z,99.90
2018-05-13T22:35:15.262Z,99.90
2018-05-13T22:37:44.121Z,99.90
2018-05-13T22:40:12.976Z,99.90
2018-05-13T22:42:41.383Z,99.90
2018-05-13T22:45:09.752Z,99.90
2018-05-13T22:47:39.548Z,99.90
2018-05-13T22:50:09.129Z,99.90
2018-05-13T22:52:37.824Z,99.90
2018-05-13T22:55:06.244Z,99.90
2018-05-13T22:57:35.491Z,99.90
2018-05-13T23:00:04.011Z,99.90
2018-05-13T23:02:33.969Z,99.90
2018-05-13T23:05:03.996Z,99.90
2018-05-13T23:07:34.116Z,99.90
2018-05-13T23:10:03.467Z,99.90
2018-05-13T23:12:32.067Z,99.90
2018-05-13T23:15:00.873Z,99.90
2018-05-13T23:17:29.240Z,99.90
2018-05-13T23:19:57.668Z,99.90
2018-05-13T23:22:31.068Z,99.90
2018-05-13T23:24:59.535Z,99.90
2018-05-13T23:27:29.537Z,99.90
2018-05-13T23:29:58.232Z,99.90
2018-05-13T23:32:26.694Z,99.90
2018-05-13T23:34:55.106Z,99.90
2018-05-13T23:37:24.990Z,99.90
2018-05-13T23:39:53.795Z,99.90
2018-05-13T23:42:22.278Z,99.90
2018-05-13T23:44:50.626Z,99.90
2018-05-13T23:47:19.040Z,99.90
2018-05-13T23:49:47.928Z,99.90
2018-05-13T23:52:16.306Z,99.90
2018-05-13T23:54:44.696Z,99.90
2018-05-13T23:57:13.095Z,99.90
2018-05-13T23:59:42.852Z,99.90
